createdAt,value
2019-04-16T00:03:03.099Z,7.6651
2019-04-16T00:08:27.547Z,7.735596
2019-04-16T00:13:48.423Z,7.655029
2019-04-16T00:19:11.085Z,7.54425
2019-04-16T00:24:33.764Z,7.524109
2019-04-16T00:29:56.564Z,7.342834
2019-04-16T00:35:19.011Z,7.272339
2019-04-16T00:40:41.742Z,7.373047
2019-04-16T00:46:04.475Z,7.080994
2019-04-16T00:51:27.334Z,7.141418
2019-04-16T00:56:50.292Z,7.091064
2019-04-16T01:02:13.030Z,6.90979
2019-04-16T01:07:35.846Z,6.819153
2019-04-16T01:12:58.719Z,6.78894
2019-04-16T01:18:21.550Z,6.859436
2019-04-16T01:23:48.275Z,6.597595
2019-04-16T01:29:07.410Z,6.567383
2019-04-16T01:34:30.069Z,6.376038
2019-04-16T01:39:52.742Z,6.235046
2019-04-16T01:45:15.422Z,6.355896
2019-04-16T01:50:38.170Z,6.396179
2019-04-16T01:56:01.354Z,6.597595
2019-04-16T02:01:24.019Z,6.456604
2019-04-16T02:06:46.699Z,6.194763
2019-04-16T02:12:12.728Z,5.963135
2019-04-16T02:17:32.995Z,5.78186
2019-04-16T02:22:56.456Z,5.590515
2019-04-16T02:28:21.557Z,5.600586
2019-04-16T02:33:43.219Z,5.39917
2019-04-16T02:39:05.946Z,5.409241
2019-04-16T02:44:28.625Z,5.328674
2019-04-16T02:49:56.315Z,5.318604
2019-04-16T02:55:14.166Z,5.197754
2019-04-16T03:00:36.888Z,5.086975
2019-04-16T03:06:01.518Z,5.086975
2019-04-16T03:11:23.869Z,4.966125
2019-04-16T03:16:47.699Z,4.865417
2019-04-16T03:22:10.369Z,4.794922
2019-04-16T03:27:33.289Z,4.744568
2019-04-16T03:32:56.221Z,4.684143
2019-04-16T03:38:19.973Z,4.684143
2019-04-16T03:43:42.752Z,4.623718
2019-04-16T03:49:05.593Z,4.623718
2019-04-16T03:54:28.310Z,4.502869
2019-04-16T03:59:51.039Z,4.361877
2019-04-16T04:05:14.903Z,4.351807
2019-04-16T04:10:37.903Z,4.281311
2019-04-16T04:16:01.474Z,4.39209
2019-04-16T04:21:24.118Z,4.442444
2019-04-16T04:26:47.003Z,4.382019
2019-04-16T04:32:11.025Z,4.311523
2019-04-16T04:37:33.812Z,4.281311
2019-04-16T04:42:57.558Z,4.251099
2019-04-16T04:48:22.937Z,4.251099
2019-04-16T04:53:42.388Z,4.210815
2019-04-16T04:59:05.965Z,4.210815
2019-04-16T05:04:27.924Z,4.14032
2019-04-16T05:09:50.816Z,4.130249
2019-04-16T05:15:13.678Z,4.14032
2019-04-16T05:20:37.396Z,4.200745
2019-04-16T05:26:04.436Z,4.251099
2019-04-16T05:31:25.561Z,4.311523
2019-04-16T05:36:47.894Z,4.351807
2019-04-16T05:42:09.335Z,4.502869
2019-04-16T05:47:34.193Z,4.472656
2019-04-16T05:52:56.879Z,4.623718
2019-04-16T05:58:20.724Z,4.653931
2019-04-16T06:03:44.487Z,4.825134
2019-04-16T06:09:11.561Z,4.935913
2019-04-16T06:14:30.784Z,5.076904
2019-04-16T06:19:53.425Z,5.26825
2019-04-16T06:25:16.163Z,5.439453
2019-04-16T06:30:38.826Z,5.630798
2019-04-16T06:36:02.548Z,5.802002
2019-04-16T06:41:25.279Z,6.104126
2019-04-16T06:46:48.857Z,6.5271
2019-04-16T06:52:15.749Z,6.547241
2019-04-16T06:57:34.412Z,6.708374
2019-04-16T07:03:02.370Z,6.929932
2019-04-16T07:08:20.112Z,7.302551
2019-04-16T07:13:44.180Z,7.695312
2019-04-16T07:19:11.131Z,7.765808
2019-04-16T07:24:36.398Z,8.098145
2019-04-16T07:29:55.806Z,8.702393
2019-04-16T07:35:19.444Z,8.239136
2019-04-16T07:40:42.171Z,9.004517
2019-04-16T07:46:04.879Z,9.29657
2019-04-16T07:51:27.525Z,9.226074
2019-04-16T07:56:50.384Z,9.004517
2019-04-16T08:02:13.448Z,9.316711
2019-04-16T08:07:36.252Z,9.739685
2019-04-16T08:13:00.444Z,10.1828
2019-04-16T08:18:21.722Z,9.860535
2019-04-16T08:23:44.488Z,10.132446
2019-04-16T08:29:07.413Z,10.43457
2019-04-16T08:34:30.325Z,11.240234
2019-04-16T08:39:53.073Z,11.05896
2019-04-16T08:45:15.667Z,11.129456
2019-04-16T08:50:38.566Z,12.358093
2019-04-16T08:56:02.478Z,11.542358
2019-04-16T09:01:25.203Z,12.489014
2019-04-16T09:06:48.200Z,12.428589
2019-04-16T09:12:12.302Z,12.630005
2019-04-16T09:17:35.041Z,14.0802
2019-04-16T09:22:58.876Z,14.039917
2019-04-16T09:28:25.510Z,14.674377
2019-04-16T09:33:44.301Z,14.563599
2019-04-16T09:39:07.376Z,14.613953
2019-04-16T09:44:31.576Z,14.352112
2019-04-16T09:49:52.978Z,14.926147
2019-04-16T09:55:18.846Z,15.308838
2019-04-16T10:00:38.196Z,15.772095
2019-04-16T10:06:00.822Z,15.58075
2019-04-16T10:11:23.464Z,15.399475
2019-04-16T10:16:47.109Z,15.913086
2019-04-16T10:22:09.735Z,15.369263
2019-04-16T10:27:32.577Z,16.265564
2019-04-16T10:32:55.157Z,16.315918
2019-04-16T10:38:18.047Z,16.477051
2019-04-16T10:43:44.595Z,16.910095
2019-04-16T10:49:03.494Z,16.688538
2019-04-16T10:54:26.414Z,17.202148
2019-04-16T10:59:50.148Z,16.769104
2019-04-16T11:05:15.191Z,17.544556
2019-04-16T11:10:37.615Z,17.705688
2019-04-16T11:16:00.303Z,16.879883
2019-04-16T11:21:22.997Z,17.171936
2019-04-16T11:26:45.630Z,17.937317
2019-04-16T11:32:08.297Z,18.682556
2019-04-16T11:37:35.850Z,19.014893
2019-04-16T11:42:54.735Z,18.380432
2019-04-16T11:48:18.631Z,18.471069
2019-04-16T11:53:43.218Z,18.420715
2019-04-16T11:59:05.993Z,19.377441
2019-04-16T12:04:32.152Z,18.873901
2019-04-16T12:09:54.793Z,18.823547
2019-04-16T12:15:17.426Z,19.306946
2019-04-16T12:20:40.159Z,19.719849
2019-04-16T12:26:02.702Z,19.901123
2019-04-16T12:31:25.531Z,20.082397
2019-04-16T12:36:49.423Z,20.001831
2019-04-16T12:42:13.072Z,20.807495
2019-04-16T12:47:35.719Z,21.593018
2019-04-16T12:52:58.377Z,21.220398
2019-04-16T12:58:21.127Z,21.613159
2019-04-16T13:03:46.417Z,21.180115
2019-04-16T13:09:06.648Z,21.925354
2019-04-16T13:14:29.294Z,21.129761
2019-04-16T13:19:52.053Z,20.102539
2019-04-16T13:25:14.656Z,19.095459
2019-04-16T13:30:37.326Z,18.843689
2019-04-16T13:35:59.948Z,18.09845
2019-04-16T13:41:25.979Z,17.756042
2019-04-16T13:46:45.231Z,18.038025
2019-04-16T13:52:07.858Z,17.786255
2019-04-16T13:57:31.482Z,17.886963
2019-04-16T14:02:54.697Z,18.420715
2019-04-16T14:08:17.433Z,18.138733
2019-04-16T14:13:41.925Z,18.09845
2019-04-16T14:19:05.961Z,17.937317
2019-04-16T14:24:26.381Z,17.9776
2019-04-16T14:29:49.044Z,18.511353
2019-04-16T14:35:12.775Z,20.173035
2019-04-16T14:40:36.462Z,19.971619
2019-04-16T14:46:00.292Z,21.079407
2019-04-16T14:51:22.855Z,20.233459
2019-04-16T14:56:46.530Z,22.046204
2019-04-16T15:02:09.214Z,20.847778
2019-04-16T15:07:31.859Z,19.709778
2019-04-16T15:12:55.605Z,19.518433
2019-04-16T15:18:18.313Z,21.854858
2019-04-16T15:23:41.105Z,22.700806
2019-04-16T15:29:03.716Z,23.224487
2019-04-16T15:34:27.321Z,22.418823
2019-04-16T15:39:51.738Z,21.421814
2019-04-16T15:45:14.400Z,23.627319
2019-04-16T15:50:37.036Z,22.821655
2019-04-16T15:55:59.716Z,23.717957
2019-04-16T16:01:22.380Z,24.060364
2019-04-16T16:06:45.037Z,23.536682
2019-04-16T16:12:10.017Z,23.526611
2019-04-16T16:17:30.349Z,22.63031
2019-04-16T16:22:54.536Z,22.25769
2019-04-16T16:28:15.648Z,21.089478
2019-04-16T16:33:38.300Z,21.270752
2019-04-16T16:39:00.921Z,20.072327
2019-04-16T16:44:23.628Z,19.850769
2019-04-16T16:49:46.295Z,18.742981
2019-04-16T16:55:08.961Z,18.038025
2019-04-16T17:00:31.720Z,17.22229
2019-04-16T17:05:54.434Z,16.436768
2019-04-16T17:11:17.263Z,16.255493
2019-04-16T17:16:39.965Z,15.953369
2019-04-16T17:22:02.640Z,15.772095
2019-04-16T17:27:25.362Z,15.741882
2019-04-16T17:32:48.041Z,15.490112
2019-04-16T17:38:10.983Z,15.328979
2019-04-16T17:43:33.801Z,15.107422
2019-04-16T17:48:56.586Z,15.006714
2019-04-16T17:54:19.527Z,14.785156
2019-04-16T17:59:42.197Z,14.20105
2019-04-16T18:05:04.897Z,14.190979
2019-04-16T18:10:27.645Z,14.160767
2019-04-16T18:15:50.332Z,13.858643
2019-04-16T18:21:12.987Z,13.788147
2019-04-16T18:26:35.748Z,13.375244
2019-04-16T18:31:59.302Z,13.284607
2019-04-16T18:37:21.981Z,13.133545
2019-04-16T18:42:44.619Z,13.012695
2019-04-16T18:48:12.923Z,12.891846
2019-04-16T18:53:29.863Z,12.922058
2019-04-16T18:58:53.477Z,12.992554
2019-04-16T19:04:16.291Z,12.69043
2019-04-16T19:09:39.191Z,12.770996
2019-04-16T19:15:02.148Z,12.43866
2019-04-16T19:20:25.018Z,12.358093
2019-04-16T19:25:47.832Z,12.368164
2019-04-16T19:31:10.578Z,12.660217
2019-04-16T19:36:34.281Z,12.559509
2019-04-16T19:41:58.153Z,12.428589
2019-04-16T19:47:20.025Z,12.408447
2019-04-16T19:52:45.591Z,12.045898
2019-04-16T19:58:09.271Z,12.106323
2019-04-16T20:03:32.834Z,11.904907
2019-04-16T20:08:56.599Z,11.925049
2019-04-16T20:14:21.530Z,11.844482
2019-04-16T20:19:45.267Z,11.81427
2019-04-16T20:25:08.765Z,11.794128
2019-04-16T20:30:31.619Z,11.492004
2019-04-16T20:35:54.433Z,11.743774
2019-04-16T20:41:18.933Z,11.743774
2019-04-16T20:46:40.061Z,11.784058
2019-04-16T20:52:03.048Z,11.854553
2019-04-16T20:57:26.480Z,12.247314
2019-04-16T21:02:51.077Z,12.257385
2019-04-16T21:08:11.642Z,12.307739
2019-04-16T21:13:35.393Z,12.176819
2019-04-16T21:18:58.255Z,12.176819
2019-04-16T21:24:22.002Z,12.156677
2019-04-16T21:29:44.851Z,11.743774
2019-04-16T21:35:08.351Z,11.5625
2019-04-16T21:40:34.591Z,11.622925
2019-04-16T21:45:57.293Z,11.280518
2019-04-16T21:51:23.942Z,11.048889
2019-04-16T21:56:42.819Z,11.05896
2019-04-16T22:02:06.852Z,10.877686
2019-04-16T22:07:29.324Z,10.474854
2019-04-16T22:12:51.988Z,10.867615
2019-04-16T22:18:14.794Z,11.119385
2019-04-16T22:23:37.476Z,11.391296
2019-04-16T22:29:01.346Z,11.622925
2019-04-16T22:34:25.028Z,11.481934
2019-04-16T22:39:50.611Z,11.461792
2019-04-16T22:45:10.493Z,11.411438
2019-04-16T22:50:34.684Z,11.300659
2019-04-16T22:55:57.324Z,11.351013
2019-04-16T23:01:18.736Z,11.210022
2019-04-16T23:06:41.552Z,11.199951
2019-04-16T23:12:05.151Z,11.270447
2019-04-16T23:17:27.858Z,11.240234
2019-04-16T23:22:50.648Z,11.260376
2019-04-16T23:28:13.371Z,11.492004
2019-04-16T23:33:36.731Z,11.421509
2019-04-16T23:39:03.208Z,11.391296
2019-04-16T23:44:22.598Z,11.280518
2019-04-16T23:49:44.862Z,11.210022
2019-04-16T23:55:07.754Z,11.169739
